< < Back
Terminal Aerodrome Forecast


Current Version              Previous Versions:   1  2  3  4  5  6  7  8  9  

Terminal Aerodrome Forecast

366
FTUS42 KILM 291120
TAFILM
TAF
KILM 291120Z 2912/3012 23008KT P6SM SKC
     FM291800 22011KT P6SM VCTS SCT035CB SCT250
     FM300000 22007KT P6SM SCT250=

Latest METAR

011
SAUS70 KWBC 291500 RRC
MTRILM
METAR KILM 291453Z 26017G23KT 10SM CLR 32/22 A2992 RMK AO2 SLP131
T03220217 58002 PWINO


USA.gov is the U.S. government's official web portal to all federal, state and local government web resources and services.